createdAt,value
2023-03-16T00:01:22.195Z,98763.97
2023-03-16T00:04:08.999Z,98769.84
2023-03-16T00:06:56.576Z,98760.69
2023-03-16T00:09:43.447Z,98741.38
2023-03-16T00:12:34.475Z,98731.78
2023-03-16T00:15:22.132Z,98729.81
2023-03-16T00:18:09.018Z,98731.00
2023-03-16T00:21:04.037Z,98737.53
2023-03-16T00:28:23.697Z,98729.22
2023-03-16T00:31:14.832Z,98725.00
2023-03-16T00:34:02.713Z,98725.69
2023-03-16T00:36:49.588Z,98722.53
2023-03-16T00:39:36.591Z,98713.53
2023-03-16T00:42:27.507Z,98717.44
2023-03-16T00:45:14.677Z,98712.84
2023-03-16T00:48:02.009Z,98719.50
2023-03-16T00:50:48.869Z,98703.00
2023-03-16T00:53:36.854Z,98725.09
2023-03-16T00:56:23.706Z,98710.72
2023-03-16T00:59:12.930Z,98714.66
2023-03-16T01:01:59.785Z,98694.84
2023-03-16T01:04:46.616Z,98696.47
2023-03-16T01:07:36.052Z,98693.25
2023-03-16T01:10:22.879Z,98689.19
2023-03-16T01:13:09.684Z,98692.72
2023-03-16T01:15:56.630Z,98690.19
2023-03-16T01:18:43.560Z,98701.59
2023-03-16T01:21:33.690Z,98698.47
2023-03-16T01:24:24.285Z,98701.84
2023-03-16T01:27:12.698Z,98703.47
2023-03-16T01:30:00.103Z,98703.28
2023-03-16T01:32:46.974Z,98704.75
2023-03-16T01:35:34.292Z,98703.13
2023-03-16T01:38:22.487Z,98703.75
2023-03-16T01:41:10.104Z,98706.13
2023-03-16T01:43:58.385Z,98708.75
2023-03-16T01:46:46.351Z,98697.19
2023-03-16T01:49:37.953Z,98698.69
2023-03-16T01:52:30.393Z,98696.06
2023-03-16T01:55:18.403Z,98695.75
2023-03-16T01:58:05.549Z,98697.88
2023-03-16T02:00:53.944Z,98698.22
2023-03-16T02:03:43.423Z,98690.59
2023-03-16T02:06:42.510Z,98698.88
2023-03-16T02:09:29.588Z,98684.13
2023-03-16T02:12:23.355Z,98693.16
2023-03-16T02:15:15.105Z,98685.19
2023-03-16T02:18:04.670Z,98687.97
2023-03-16T02:21:05.231Z,98699.53
2023-03-16T02:23:52.163Z,98691.78
2023-03-16T02:27:04.362Z,98696.44
2023-03-16T02:30:01.125Z,98674.94
2023-03-16T02:32:54.794Z,98700.84
2023-03-16T02:35:41.997Z,98684.31
2023-03-16T02:38:28.879Z,98694.38
2023-03-16T02:41:22.081Z,98692.31
2023-03-16T02:44:24.278Z,98685.97
2023-03-16T02:47:26.911Z,98707.09
2023-03-16T02:50:17.260Z,98716.06
2023-03-16T02:53:05.652Z,98746.97
2023-03-16T02:55:52.715Z,98756.53
2023-03-16T02:58:40.040Z,98770.63
2023-03-16T03:01:32.525Z,98755.44
2023-03-16T03:04:22.657Z,98765.75
2023-03-16T03:07:09.708Z,98750.72
2023-03-16T03:10:13.388Z,98734.13
2023-03-16T03:13:00.221Z,98726.25
2023-03-16T03:15:47.465Z,98730.06
2023-03-16T03:18:34.741Z,98743.16
2023-03-16T03:21:23.482Z,98762.19
2023-03-16T03:24:10.447Z,98742.22
2023-03-16T03:26:58.900Z,98737.03
2023-03-16T03:29:45.939Z,98735.47
2023-03-16T03:32:32.974Z,98766.31
2023-03-16T03:35:01.018Z,98758.78
2023-03-16T03:37:28.849Z,98758.81
2023-03-16T03:39:55.802Z,98753.22
2023-03-16T03:42:23.865Z,98737.53
2023-03-16T03:44:51.635Z,98747.09
2023-03-16T03:47:19.740Z,98743.91
2023-03-16T03:49:46.478Z,98732.84
2023-03-16T03:52:13.207Z,98721.28
2023-03-16T03:54:42.708Z,98715.63
2023-03-16T03:57:13.674Z,98713.91
2023-03-16T03:59:43.807Z,98706.13
2023-03-16T04:02:22.265Z,98701.28
2023-03-16T04:04:52.111Z,98693.91
2023-03-16T04:07:18.809Z,98693.56
2023-03-16T04:09:46.418Z,98681.34
2023-03-16T04:12:25.650Z,98690.00
2023-03-16T04:14:52.898Z,98687.59
2023-03-16T04:17:20.729Z,98687.22
2023-03-16T04:19:49.142Z,98661.34
2023-03-16T04:22:17.747Z,98683.25
2023-03-16T04:24:46.097Z,98673.53
2023-03-16T04:27:13.648Z,98666.22
2023-03-16T04:29:40.308Z,98654.03
2023-03-16T04:32:07.925Z,98663.59
2023-03-16T04:34:35.928Z,98660.78
2023-03-16T04:37:05.354Z,98648.22
2023-03-16T04:39:34.540Z,98666.22
2023-03-16T04:42:01.670Z,98665.84
2023-03-16T04:44:28.313Z,98660.75
2023-03-16T04:46:55.747Z,98660.25
2023-03-16T04:49:24.784Z,98650.84
2023-03-16T04:51:51.439Z,98652.38
2023-03-16T04:54:20.789Z,98664.38
2023-03-16T04:56:48.476Z,98661.56
2023-03-16T04:59:36.277Z,98654.94
2023-03-16T05:02:11.711Z,98657.56
2023-03-16T05:04:38.732Z,98661.09
2023-03-16T05:07:08.933Z,98651.75
2023-03-16T05:09:37.965Z,98644.16
2023-03-16T05:12:04.566Z,98665.22
2023-03-16T05:14:32.104Z,98664.03
2023-03-16T05:17:14.689Z,98656.28
2023-03-16T05:19:42.297Z,98643.88
2023-03-16T05:22:10.036Z,98655.09
2023-03-16T05:24:38.465Z,98653.66
2023-03-16T05:27:07.444Z,98658.47
2023-03-16T05:29:34.364Z,98645.00
2023-03-16T05:32:01.029Z,98637.03
2023-03-16T05:34:29.589Z,98643.81
2023-03-16T05:36:56.158Z,98635.88
2023-03-16T05:39:26.427Z,98641.75
2023-03-16T05:41:54.944Z,98639.56
2023-03-16T05:44:29.121Z,98630.59
2023-03-16T05:47:12.491Z,98642.88
2023-03-16T05:49:43.287Z,98651.69
2023-03-16T05:52:19.436Z,98650.06
2023-03-16T05:54:46.148Z,98648.13
2023-03-16T05:57:12.677Z,98654.38
2023-03-16T05:59:41.456Z,98649.84
2023-03-16T06:02:10.772Z,98643.47
2023-03-16T06:04:38.356Z,98635.88
2023-03-16T06:07:05.966Z,98640.06
2023-03-16T06:09:33.833Z,98636.19
2023-03-16T06:12:04.063Z,98631.22
2023-03-16T06:14:31.032Z,98656.88
2023-03-16T06:16:57.582Z,98640.78
2023-03-16T06:19:24.187Z,98653.59
2023-03-16T06:21:56.238Z,98668.66
2023-03-16T06:24:22.838Z,98668.22
2023-03-16T06:26:50.968Z,98676.66
2023-03-16T06:29:19.037Z,98667.25
2023-03-16T06:31:46.021Z,98682.41
2023-03-16T06:34:12.618Z,98686.19
2023-03-16T06:36:40.108Z,98692.53
2023-03-16T06:39:11.249Z,98687.72
2023-03-16T06:41:42.661Z,98700.47
2023-03-16T06:44:11.439Z,98686.66
2023-03-16T06:46:43.442Z,98686.34
2023-03-16T06:49:11.043Z,98676.38
2023-03-16T06:51:38.282Z,98674.72
2023-03-16T06:54:04.934Z,98663.91
2023-03-16T06:56:38.058Z,98678.00
2023-03-16T06:59:05.795Z,98676.41
2023-03-16T07:01:32.462Z,98688.97
2023-03-16T07:03:59.170Z,98677.22
2023-03-16T07:06:29.632Z,98666.69
2023-03-16T07:08:56.153Z,98658.94
2023-03-16T07:11:23.907Z,98760.34
2023-03-16T07:13:51.712Z,98810.22
2023-03-16T07:16:19.997Z,98802.94
2023-03-16T07:18:47.699Z,98789.81
2023-03-16T07:21:16.323Z,98777.38
2023-03-16T07:23:44.670Z,98830.25
2023-03-16T07:26:13.945Z,98853.63
2023-03-16T07:28:49.822Z,98833.03
2023-03-16T07:31:17.142Z,98843.44
2023-03-16T07:33:44.781Z,98862.72
2023-03-16T07:36:16.563Z,98876.25
2023-03-16T07:38:50.639Z,98866.88
2023-03-16T07:41:18.273Z,98877.56
2023-03-16T07:43:46.146Z,98906.72
2023-03-16T07:46:14.515Z,98884.97
2023-03-16T07:48:44.802Z,98908.63
2023-03-16T07:51:13.780Z,98919.19
2023-03-16T07:53:41.919Z,98894.84
2023-03-16T07:56:19.993Z,98909.72
2023-03-16T07:58:51.362Z,98937.34
2023-03-16T08:01:17.900Z,98912.53
2023-03-16T08:03:44.788Z,98920.06
2023-03-16T08:06:12.105Z,98971.50
2023-03-16T08:08:38.662Z,98933.09
2023-03-16T08:11:06.017Z,98919.22
2023-03-16T08:13:46.895Z,98919.88
2023-03-16T08:16:13.904Z,98919.00
2023-03-16T08:18:43.550Z,98932.47
2023-03-16T08:21:10.613Z,98867.00
2023-03-16T08:23:37.233Z,98890.75
2023-03-16T08:26:08.618Z,98880.13
2023-03-16T08:28:36.055Z,98886.47
2023-03-16T08:31:08.322Z,98884.66
2023-03-16T08:33:42.895Z,98874.53
2023-03-16T08:36:13.455Z,98888.38
2023-03-16T08:38:44.143Z,98885.22
2023-03-16T08:41:12.508Z,98920.88
2023-03-16T08:43:40.272Z,98921.72
2023-03-16T08:46:06.866Z,98909.31
2023-03-16T08:48:48.474Z,98878.25
2023-03-16T08:51:15.872Z,98863.34
2023-03-16T08:53:42.366Z,98887.00
2023-03-16T08:56:12.289Z,98881.09
2023-03-16T08:58:40.328Z,98910.16
2023-03-16T09:01:06.960Z,98907.59
2023-03-16T09:03:35.182Z,98888.38
2023-03-16T09:06:07.587Z,98918.69
2023-03-16T09:08:34.080Z,98898.09
2023-03-16T09:11:07.445Z,98922.41
2023-03-16T09:13:35.342Z,98932.41
2023-03-16T09:16:01.930Z,98938.53
2023-03-16T09:18:28.827Z,98886.84
2023-03-16T09:21:05.418Z,98881.09
2023-03-16T09:23:32.471Z,98888.56
2023-03-16T09:26:01.565Z,98948.91
2023-03-16T09:28:29.621Z,98941.81
2023-03-16T09:30:57.034Z,98923.63
2023-03-16T09:33:25.387Z,98885.13
2023-03-16T09:35:52.473Z,98898.50
2023-03-16T09:38:19.798Z,98940.84
2023-03-16T09:40:48.938Z,98940.94
2023-03-16T09:43:58.508Z,98909.25
2023-03-16T09:46:33.924Z,98938.25
2023-03-16T09:49:02.348Z,98933.50
2023-03-16T09:51:44.011Z,98892.03
2023-03-16T09:54:29.560Z,98935.16
2023-03-16T09:57:34.958Z,98895.34
2023-03-16T10:00:18.291Z,98890.59
2023-03-16T10:03:43.910Z,98922.56
2023-03-16T10:06:29.342Z,98890.88
2023-03-16T10:11:54.853Z,98940.63
2023-03-16T10:14:34.169Z,98866.41
2023-03-16T10:17:18.216Z,98898.50
2023-03-16T10:19:52.818Z,98895.13
2023-03-16T10:22:22.529Z,98884.84
2023-03-16T10:25:20.342Z,98883.78
2023-03-16T10:27:48.130Z,98897.06
2023-03-16T10:30:19.736Z,98925.56
2023-03-16T10:32:47.130Z,98888.38
2023-03-16T10:35:30.392Z,98901.94
2023-03-16T10:37:58.512Z,98870.22
2023-03-16T10:40:26.193Z,98848.91
2023-03-16T10:42:53.454Z,98861.50
2023-03-16T10:45:42.627Z,98905.84
2023-03-16T10:48:14.616Z,98858.53
2023-03-16T10:50:44.324Z,98869.53
2023-03-16T10:53:26.837Z,98862.63
2023-03-16T10:56:02.250Z,98900.50
2023-03-16T10:58:35.615Z,98814.56
2023-03-16T11:01:03.462Z,98887.06
2023-03-16T11:03:35.496Z,98811.34
2023-03-16T11:06:05.572Z,98849.00
2023-03-16T11:08:35.031Z,98831.94
2023-03-16T11:11:09.922Z,98810.13
2023-03-16T11:13:38.935Z,98858.25
2023-03-16T11:16:33.456Z,98832.44
2023-03-16T11:19:24.061Z,98840.38
2023-03-16T11:21:57.098Z,98820.69
2023-03-16T11:24:45.412Z,98787.41
2023-03-16T11:27:22.760Z,98822.59
2023-03-16T11:30:13.426Z,98823.16
2023-03-16T11:32:43.244Z,98861.41
2023-03-16T11:35:19.381Z,98809.25
2023-03-16T11:37:59.383Z,98827.00
2023-03-16T11:40:47.480Z,98738.53
2023-03-16T11:43:40.603Z,98807.63
2023-03-16T11:46:22.652Z,98760.91
2023-03-16T11:49:06.666Z,98807.00
2023-03-16T11:51:47.766Z,98782.03
2023-03-16T11:54:55.475Z,98742.91
2023-03-16T11:57:36.768Z,98847.03
2023-03-16T12:00:34.321Z,98812.88
2023-03-16T12:03:04.730Z,98851.13
2023-03-16T12:05:57.623Z,98797.88
2023-03-16T12:08:27.193Z,98725.63
2023-03-16T12:11:02.511Z,98720.84
2023-03-16T12:13:48.428Z,98746.81
2023-03-16T12:16:33.121Z,98749.50
2023-03-16T12:19:21.916Z,98831.50
2023-03-16T12:21:59.750Z,98718.94
2023-03-16T12:24:33.944Z,98720.88
2023-03-16T12:27:02.529Z,98776.66
2023-03-16T12:29:42.718Z,98789.19
2023-03-16T12:32:25.790Z,98770.13
2023-03-16T12:35:21.941Z,98797.03
2023-03-16T12:38:21.898Z,98771.75
2023-03-16T12:41:00.218Z,98770.31
2023-03-16T12:43:55.415Z,98736.78
2023-03-16T12:46:32.054Z,98720.47
2023-03-16T12:49:02.069Z,98711.81
2023-03-16T12:51:41.340Z,98698.16
2023-03-16T12:54:25.312Z,98738.38
2023-03-16T12:56:59.489Z,98708.63
2023-03-16T12:59:36.940Z,98713.22
2023-03-16T13:02:04.022Z,98777.84
2023-03-16T13:04:34.264Z,98716.25
2023-03-16T13:07:08.142Z,98666.63
2023-03-16T13:09:42.055Z,98741.72
2023-03-16T13:12:10.251Z,98761.28
2023-03-16T13:14:41.740Z,98686.44
2023-03-16T13:17:17.201Z,98718.13
2023-03-16T13:20:30.265Z,98702.56
2023-03-16T13:23:58.497Z,98688.34
2023-03-16T13:26:50.194Z,98721.47
2023-03-16T13:29:26.332Z,98742.00
2023-03-16T13:31:54.886Z,98748.88
2023-03-16T13:34:26.448Z,98796.91
2023-03-16T13:36:56.890Z,98754.75
2023-03-16T13:39:29.266Z,98777.47
2023-03-16T13:42:14.789Z,98786.31
2023-03-16T13:44:42.221Z,98770.56
2023-03-16T13:47:13.804Z,98732.03
2023-03-16T13:50:00.088Z,98754.28
2023-03-16T13:52:33.198Z,98728.63
2023-03-16T13:55:02.494Z,98771.03
2023-03-16T13:57:32.087Z,98753.53
2023-03-16T14:00:18.201Z,98716.66
2023-03-16T14:02:47.202Z,98768.75
2023-03-16T14:05:19.982Z,98716.88
2023-03-16T14:07:48.667Z,98615.78
2023-03-16T14:10:17.189Z,98715.28
2023-03-16T14:12:54.671Z,98643.97
2023-03-16T14:15:25.911Z,98659.28
2023-03-16T14:18:12.486Z,98711.72
2023-03-16T14:20:41.672Z,98704.44
2023-03-16T14:23:31.464Z,98713.38
2023-03-16T14:25:57.998Z,98678.41
2023-03-16T14:28:32.296Z,98635.22
2023-03-16T14:31:05.345Z,98647.91
2023-03-16T14:33:37.064Z,98645.22
2023-03-16T14:36:15.128Z,98657.94
2023-03-16T14:38:43.891Z,98710.50
2023-03-16T14:41:22.882Z,98652.84
2023-03-16T14:43:54.222Z,98659.53
2023-03-16T14:46:30.754Z,98659.00
2023-03-16T14:49:03.516Z,98653.75
2023-03-16T14:51:32.031Z,98658.41
2023-03-16T14:53:58.563Z,98660.78
2023-03-16T14:56:32.828Z,98644.63
2023-03-16T14:58:59.456Z,98635.06
2023-03-16T15:01:26.875Z,98641.09
2023-03-16T15:03:53.441Z,98669.88
2023-03-16T15:06:20.919Z,98665.84
2023-03-16T15:08:50.744Z,98657.03
2023-03-16T15:11:21.439Z,98624.97
2023-03-16T15:13:48.589Z,98622.84
2023-03-16T15:16:15.160Z,98633.22
2023-03-16T15:18:42.628Z,98625.13
2023-03-16T15:21:15.616Z,98653.94
2023-03-16T15:23:43.758Z,98642.16
2023-03-16T15:26:16.051Z,98634.28
2023-03-16T15:28:42.913Z,98625.50
2023-03-16T15:31:14.447Z,98642.59
2023-03-16T15:33:45.308Z,98658.19
2023-03-16T15:36:15.796Z,98642.25
2023-03-16T15:38:46.051Z,98641.03
2023-03-16T15:41:13.585Z,98630.50
2023-03-16T15:43:40.384Z,98630.09
2023-03-16T15:46:07.011Z,98638.03
2023-03-16T15:48:33.825Z,98609.53
2023-03-16T15:51:07.548Z,98639.50
2023-03-16T15:53:42.288Z,98649.81
2023-03-16T15:56:17.348Z,98642.16
2023-03-16T15:58:46.181Z,98636.84
2023-03-16T16:01:23.321Z,98643.59
2023-03-16T16:03:53.981Z,98647.38
2023-03-16T16:06:20.655Z,98644.56
2023-03-16T16:08:47.128Z,98655.25
2023-03-16T16:11:28.115Z,98624.91
2023-03-16T16:13:56.670Z,98604.28
2023-03-16T16:16:25.982Z,98614.06
2023-03-16T16:18:52.510Z,98585.50
2023-03-16T16:21:25.077Z,98628.56
2023-03-16T16:23:52.141Z,98622.94
2023-03-16T16:26:27.933Z,98631.81
2023-03-16T16:28:58.702Z,98625.34
2023-03-16T16:31:27.815Z,98626.84
2023-03-16T16:33:54.489Z,98599.94
2023-03-16T16:36:21.176Z,98618.28
2023-03-16T16:38:49.404Z,98609.06
2023-03-16T16:41:25.030Z,98608.97
2023-03-16T16:43:53.209Z,98589.44
2023-03-16T16:46:23.734Z,98579.19
2023-03-16T16:48:53.479Z,98581.34
2023-03-16T16:51:25.543Z,98574.91
2023-03-16T16:53:54.388Z,98569.31
2023-03-16T16:56:27.513Z,98562.19
2023-03-16T16:58:54.833Z,98569.91
2023-03-16T17:01:34.598Z,98570.69
2023-03-16T17:04:02.541Z,98565.38
2023-03-16T17:06:29.090Z,98560.13
2023-03-16T17:08:56.061Z,98556.75
2023-03-16T17:11:29.705Z,98572.75
2023-03-16T17:14:01.842Z,98574.03
2023-03-16T17:16:32.150Z,98569.44
2023-03-16T17:18:59.071Z,98571.75
2023-03-16T17:21:29.766Z,98565.19
2023-03-16T17:23:57.323Z,98556.38
2023-03-16T17:26:36.639Z,98555.06
2023-03-16T17:29:10.246Z,98537.81
2023-03-16T17:31:39.403Z,98527.19
2023-03-16T17:34:27.784Z,98534.63
2023-03-16T17:36:55.731Z,98527.63
2023-03-16T17:39:31.802Z,98532.34
2023-03-16T17:42:06.020Z,98543.22
2023-03-16T17:44:52.969Z,98533.72
2023-03-16T17:47:25.340Z,98540.63
2023-03-16T17:49:52.390Z,98534.94
2023-03-16T17:52:23.195Z,98522.25
2023-03-16T17:54:51.983Z,98516.34
2023-03-16T17:57:28.516Z,98515.00
2023-03-16T17:59:56.456Z,98493.47
2023-03-16T18:02:35.120Z,98513.19
2023-03-16T18:05:31.049Z,98513.34
2023-03-16T18:08:29.756Z,98521.66
2023-03-16T18:11:23.277Z,98525.91
2023-03-16T18:14:24.585Z,98533.78
2023-03-16T18:17:15.624Z,98532.81
2023-03-16T18:20:02.553Z,98547.00
2023-03-16T18:22:50.187Z,98541.38
2023-03-16T18:25:39.187Z,98540.28
2023-03-16T18:28:26.136Z,98543.00
2023-03-16T18:31:23.668Z,98529.78
2023-03-16T18:34:23.737Z,98514.66
2023-03-16T18:37:19.350Z,98519.78
2023-03-16T18:40:06.859Z,98521.72
2023-03-16T18:42:54.982Z,98512.66
2023-03-16T18:45:41.862Z,98517.66
2023-03-16T18:48:34.794Z,98516.16
2023-03-16T18:51:21.927Z,98496.56
2023-03-16T18:54:20.380Z,98493.69
2023-03-16T18:57:19.176Z,98497.94
2023-03-16T19:00:06.663Z,98488.06
2023-03-16T19:02:59.324Z,98469.13
2023-03-16T19:05:46.429Z,98483.00
2023-03-16T19:08:34.369Z,98465.53
2023-03-16T19:11:21.601Z,98465.31
2023-03-16T19:14:17.463Z,98477.63
2023-03-16T19:17:04.269Z,98463.22
2023-03-16T19:19:51.121Z,98454.28
2023-03-16T19:22:37.959Z,98475.72
2023-03-16T19:25:32.100Z,98475.50
2023-03-16T19:28:34.076Z,98458.66
2023-03-16T19:31:25.596Z,98451.75
2023-03-16T19:34:18.509Z,98443.00
2023-03-16T19:37:05.276Z,98453.78
2023-03-16T19:39:52.145Z,98444.13
2023-03-16T19:42:40.999Z,98470.22
2023-03-16T19:45:34.056Z,98454.63
2023-03-16T19:48:30.444Z,98445.75
2023-03-16T19:51:17.938Z,98448.59
2023-03-16T19:54:04.766Z,98446.66
2023-03-16T19:56:53.452Z,98447.78
2023-03-16T19:59:41.624Z,98444.88
2023-03-16T20:02:40.826Z,98441.25
2023-03-16T20:05:29.709Z,98439.53
2023-03-16T20:08:19.685Z,98435.88
2023-03-16T20:11:10.322Z,98439.63
2023-03-16T20:13:58.571Z,98450.44
2023-03-16T20:16:47.119Z,98434.19
2023-03-16T20:19:34.236Z,98427.91
2023-03-16T20:22:27.376Z,98432.97
2023-03-16T20:25:14.293Z,98442.25
2023-03-16T20:28:03.780Z,98437.28
2023-03-16T20:30:51.640Z,98430.53
2023-03-16T20:33:38.537Z,98454.66
2023-03-16T20:36:26.366Z,98453.06
2023-03-16T20:39:13.204Z,98435.50
2023-03-16T20:42:00.207Z,98445.38
2023-03-16T20:44:47.510Z,98434.66
2023-03-16T20:47:34.348Z,98444.97
2023-03-16T20:50:27.969Z,98448.13
2023-03-16T20:53:14.756Z,98435.16
2023-03-16T20:56:01.670Z,98442.38
2023-03-16T20:58:50.474Z,98418.25
2023-03-16T21:01:38.876Z,98424.16
2023-03-16T21:04:27.535Z,98440.19
2023-03-16T21:07:16.480Z,98440.47
2023-03-16T21:10:03.508Z,98447.28
2023-03-16T21:12:56.748Z,98431.88
2023-03-16T21:15:44.457Z,98428.03
2023-03-16T21:18:31.487Z,98440.31
2023-03-16T21:21:19.576Z,98441.28
2023-03-16T21:24:06.914Z,98424.66
2023-03-16T21:26:53.863Z,98418.25
2023-03-16T21:29:40.827Z,98420.81
2023-03-16T21:32:28.268Z,98410.41
2023-03-16T21:35:15.945Z,98411.91
2023-03-16T21:38:15.724Z,98405.66
2023-03-16T21:41:02.521Z,98416.94
2023-03-16T21:43:54.372Z,98398.31
2023-03-16T21:46:42.501Z,98418.38
2023-03-16T21:49:29.572Z,98413.44
2023-03-16T21:52:30.343Z,98405.03
2023-03-16T21:55:23.704Z,98402.38
2023-03-16T21:58:11.020Z,98399.66
2023-03-16T22:00:59.028Z,98398.91
2023-03-16T22:03:51.001Z,98388.25
2023-03-16T22:06:38.436Z,98379.41
2023-03-16T22:09:29.830Z,98372.91
2023-03-16T22:12:18.297Z,98369.34
2023-03-16T22:15:05.546Z,98380.31
2023-03-16T22:17:53.782Z,98365.41
2023-03-16T22:20:40.619Z,98360.84
2023-03-16T22:23:36.944Z,98367.81
2023-03-16T22:26:24.156Z,98366.81
2023-03-16T22:29:26.576Z,98379.66
2023-03-16T22:32:17.914Z,98381.38
2023-03-16T22:35:05.091Z,98385.81
2023-03-16T22:37:53.127Z,98370.13
2023-03-16T22:40:41.254Z,98368.94
2023-03-16T22:43:35.032Z,98373.66
2023-03-16T22:46:24.351Z,98372.94
2023-03-16T22:49:27.448Z,98364.84
2023-03-16T22:52:14.321Z,98343.66
2023-03-16T22:55:03.461Z,98366.50
2023-03-16T22:57:53.795Z,98381.28
2023-03-16T23:00:41.310Z,98368.50
2023-03-16T23:03:28.405Z,98374.91
2023-03-16T23:06:24.472Z,98369.25
2023-03-16T23:09:13.601Z,98372.50
2023-03-16T23:12:03.127Z,98361.06
2023-03-16T23:14:50.017Z,98376.13
2023-03-16T23:17:37.503Z,98367.69
2023-03-16T23:20:30.823Z,98351.78
2023-03-16T23:23:18.528Z,98359.38
2023-03-16T23:26:11.491Z,98346.59
2023-03-16T23:28:58.623Z,98337.25
2023-03-16T23:31:45.442Z,98345.41
2023-03-16T23:34:32.250Z,98355.34
2023-03-16T23:37:19.160Z,98349.03
2023-03-16T23:40:06.258Z,98338.19
2023-03-16T23:42:55.827Z,98338.06
2023-03-16T23:45:45.941Z,98328.00
2023-03-16T23:48:33.528Z,98310.13
2023-03-16T23:51:24.439Z,98323.56
2023-03-16T23:54:17.871Z,98328.63
2023-03-16T23:57:04.723Z,98324.72
2023-03-16T23:59:51.539Z,98315.94
